createdAt,value
2023-03-20T00:01:30.935Z,7.00
2023-03-20T00:03:57.845Z,6.70
2023-03-20T00:06:26.921Z,6.90
2023-03-20T00:08:55.294Z,7.07
2023-03-20T00:11:30.885Z,6.95
2023-03-20T00:14:06.395Z,7.05
2023-03-20T00:16:35.575Z,7.45
2023-03-20T00:19:03.273Z,7.30
2023-03-20T00:21:30.735Z,7.15
2023-03-20T00:23:57.730Z,7.10
2023-03-20T00:26:33.558Z,7.63
2023-03-20T00:29:01.779Z,6.50
2023-03-20T00:31:35.405Z,6.95
2023-03-20T00:34:05.442Z,7.57
2023-03-20T00:36:33.412Z,7.53
2023-03-20T00:39:00.209Z,7.60
2023-03-20T00:41:38.773Z,7.95
2023-03-20T00:44:29.813Z,6.72
2023-03-20T00:47:04.167Z,7.70
2023-03-20T00:49:35.445Z,7.40
2023-03-20T00:52:03.449Z,7.70
2023-03-20T00:54:31.205Z,8.18
2023-03-20T00:57:05.544Z,7.50
2023-03-20T00:59:42.274Z,8.30
2023-03-20T01:02:11.652Z,7.72
2023-03-20T01:04:41.433Z,7.10
2023-03-20T01:07:13.858Z,7.25
2023-03-20T01:09:40.558Z,7.60
2023-03-20T01:12:10.369Z,8.10
2023-03-20T01:14:37.008Z,8.20
2023-03-20T01:17:03.711Z,8.10
2023-03-20T01:19:30.454Z,7.53
2023-03-20T01:21:57.081Z,8.00
2023-03-20T01:24:23.912Z,7.97
2023-03-20T01:26:52.619Z,7.97
2023-03-20T01:29:22.051Z,8.43
2023-03-20T01:31:49.903Z,9.00
2023-03-20T01:34:16.712Z,8.35
2023-03-20T01:36:56.986Z,8.45
2023-03-20T01:39:34.694Z,8.98
2023-03-20T01:42:03.208Z,8.10
2023-03-20T01:44:32.602Z,8.90
2023-03-20T01:47:00.204Z,8.32
2023-03-20T01:49:28.206Z,7.47
2023-03-20T01:51:56.986Z,7.50
2023-03-20T01:54:29.695Z,8.40
2023-03-20T01:57:17.169Z,8.07
2023-03-20T02:00:16.707Z,8.73
2023-03-20T02:02:46.317Z,7.85
2023-03-20T02:05:15.690Z,8.40
2023-03-20T02:07:45.784Z,8.80
2023-03-20T02:10:15.250Z,9.10
2023-03-20T02:12:42.986Z,10.40
2023-03-20T02:15:11.727Z,9.80
2023-03-20T02:17:38.404Z,9.65
2023-03-20T02:20:15.231Z,9.30
2023-03-20T02:23:02.100Z,8.90
2023-03-20T02:25:31.718Z,11.13
2023-03-20T02:28:22.581Z,8.90
2023-03-20T02:31:01.849Z,10.98
2023-03-20T02:33:31.300Z,11.80
2023-03-20T02:36:35.449Z,9.43
2023-03-20T02:39:27.693Z,8.95
2023-03-20T02:42:28.623Z,9.80
2023-03-20T02:45:13.541Z,10.20
2023-03-20T02:47:52.649Z,9.48
2023-03-20T02:50:35.387Z,10.95
2023-03-20T02:53:39.816Z,10.52
2023-03-20T02:56:09.188Z,9.18
2023-03-20T02:59:03.600Z,10.13
2023-03-20T03:01:38.791Z,11.68
2023-03-20T03:04:16.420Z,11.18
2023-03-20T03:06:46.095Z,10.63
2023-03-20T03:09:36.649Z,13.05
2023-03-20T03:12:10.241Z,10.50
2023-03-20T03:14:48.211Z,10.88
2023-03-20T03:17:17.705Z,10.82
2023-03-20T03:19:52.643Z,11.50
2023-03-20T03:22:21.416Z,10.93
2023-03-20T03:24:51.938Z,10.45
2023-03-20T03:28:05.092Z,11.70
2023-03-20T03:30:36.250Z,11.15
2023-03-20T03:33:17.142Z,11.70
2023-03-20T03:35:45.373Z,11.45
2023-03-20T03:38:28.703Z,11.80
2023-03-20T03:41:07.481Z,11.13
2023-03-20T03:43:45.549Z,11.02
2023-03-20T03:46:53.387Z,12.35
2023-03-20T03:49:32.002Z,11.73
2023-03-20T03:52:06.682Z,11.52
2023-03-20T03:54:42.306Z,12.30
2023-03-20T03:57:12.330Z,11.52
2023-03-20T03:59:43.563Z,11.35
2023-03-20T04:02:11.060Z,11.57
2023-03-20T04:04:43.297Z,12.00
2023-03-20T04:07:10.441Z,11.40
2023-03-20T04:09:37.391Z,12.80
2023-03-20T04:12:04.217Z,12.07
2023-03-20T04:14:31.261Z,13.13
2023-03-20T04:16:57.934Z,13.35
2023-03-20T04:19:24.620Z,12.95
2023-03-20T04:21:51.295Z,12.60
2023-03-20T04:24:18.095Z,12.30
2023-03-20T04:26:44.727Z,12.65
2023-03-20T04:29:11.399Z,13.00
2023-03-20T04:31:38.141Z,12.95
2023-03-20T04:34:05.004Z,12.50
2023-03-20T04:36:31.630Z,12.20
2023-03-20T04:38:58.314Z,12.30
2023-03-20T04:41:25.135Z,12.90
2023-03-20T04:43:51.766Z,12.43
2023-03-20T04:46:18.866Z,11.23
2023-03-20T04:48:45.605Z,11.90
2023-03-20T04:51:12.269Z,11.98
2023-03-20T04:53:38.940Z,12.60
2023-03-20T04:56:06.044Z,12.10
2023-03-20T04:58:33.303Z,11.75
2023-03-20T05:00:59.982Z,12.57
2023-03-20T05:03:27.680Z,12.38
2023-03-20T05:05:54.382Z,13.13
2023-03-20T05:08:21.113Z,11.75
2023-03-20T05:10:47.759Z,12.10
2023-03-20T05:13:14.416Z,12.15
2023-03-20T05:15:41.069Z,11.70
2023-03-20T05:18:08.168Z,12.15
2023-03-20T05:20:34.864Z,13.10
2023-03-20T05:23:01.688Z,12.98
2023-03-20T05:25:28.437Z,12.45
2023-03-20T05:27:55.341Z,12.20
2023-03-20T05:30:22.112Z,12.60
2023-03-20T05:32:52.731Z,13.43
2023-03-20T05:35:19.542Z,14.13
2023-03-20T05:37:46.194Z,13.50
2023-03-20T05:40:14.794Z,13.00
2023-03-20T05:42:41.817Z,13.95
2023-03-20T05:45:09.050Z,12.55
2023-03-20T05:47:35.694Z,13.23
2023-03-20T05:50:03.661Z,13.13
2023-03-20T05:52:30.366Z,14.00
2023-03-20T05:54:57.027Z,12.00
2023-03-20T05:57:23.686Z,13.93
2023-03-20T05:59:50.426Z,13.63
2023-03-20T06:02:17.308Z,13.07
2023-03-20T06:04:44.179Z,14.20
2023-03-20T06:07:11.018Z,13.15
2023-03-20T06:09:37.717Z,13.93
2023-03-20T06:12:04.477Z,12.23
2023-03-20T06:14:31.240Z,13.70
2023-03-20T06:16:58.017Z,12.75
2023-03-20T06:19:24.866Z,12.80
2023-03-20T06:21:51.569Z,13.43
2023-03-20T06:24:18.379Z,13.75
2023-03-20T06:26:45.141Z,13.38
2023-03-20T06:29:11.807Z,14.43
2023-03-20T06:31:38.575Z,12.13
2023-03-20T06:34:05.392Z,12.95
2023-03-20T06:36:32.236Z,13.50
2023-03-20T06:38:58.988Z,13.75
2023-03-20T06:41:34.178Z,13.77
2023-03-20T06:44:02.277Z,13.65
2023-03-20T06:46:29.023Z,13.82
2023-03-20T06:48:55.877Z,13.57
2023-03-20T06:51:22.567Z,15.05
2023-03-20T06:53:49.224Z,14.32
2023-03-20T06:56:16.818Z,14.00
2023-03-20T06:58:43.453Z,15.38
2023-03-20T07:01:13.131Z,15.00
2023-03-20T07:03:41.174Z,14.57
2023-03-20T07:06:08.426Z,16.90
2023-03-20T07:08:35.353Z,14.52
2023-03-20T07:11:04.159Z,14.77
2023-03-20T07:13:32.482Z,14.13
2023-03-20T07:16:04.746Z,15.02
2023-03-20T07:18:32.283Z,15.20
2023-03-20T07:21:02.965Z,14.70
2023-03-20T07:23:30.781Z,15.10
2023-03-20T07:25:58.804Z,15.75
2023-03-20T07:28:25.451Z,15.32
2023-03-20T07:30:52.404Z,17.67
2023-03-20T07:33:19.466Z,14.95
2023-03-20T07:35:46.465Z,16.30
2023-03-20T07:38:13.112Z,15.90
2023-03-20T07:40:39.761Z,15.13
2023-03-20T07:43:06.648Z,16.08
2023-03-20T07:45:33.353Z,15.85
2023-03-20T07:48:00.435Z,16.42
2023-03-20T07:50:27.159Z,17.58
2023-03-20T07:52:53.755Z,15.57
2023-03-20T07:55:20.411Z,15.18
2023-03-20T07:57:49.582Z,17.35
2023-03-20T08:00:17.309Z,16.58
2023-03-20T08:02:44.292Z,17.10
2023-03-20T08:05:11.216Z,17.40
2023-03-20T08:07:37.849Z,16.02
2023-03-20T08:10:04.937Z,18.42
2023-03-20T08:12:31.569Z,17.17
2023-03-20T08:14:58.281Z,17.60
2023-03-20T08:17:25.411Z,18.88
2023-03-20T08:19:52.105Z,17.70
2023-03-20T08:22:18.761Z,18.50
2023-03-20T08:24:45.494Z,17.42
2023-03-20T08:27:12.149Z,18.77
2023-03-20T08:29:38.907Z,17.52
2023-03-20T08:32:06.119Z,18.77
2023-03-20T08:34:33.569Z,18.30
2023-03-20T08:37:02.735Z,17.13
2023-03-20T08:39:29.419Z,19.88
2023-03-20T08:41:56.103Z,17.95
2023-03-20T08:44:22.727Z,18.52
2023-03-20T08:46:49.411Z,21.15
2023-03-20T08:49:16.085Z,20.60
2023-03-20T08:51:43.066Z,19.02
2023-03-20T08:54:09.711Z,21.95
2023-03-20T08:56:36.384Z,21.15
2023-03-20T08:59:03.636Z,20.85
2023-03-20T09:01:46.082Z,22.40
2023-03-20T09:04:15.265Z,23.77
2023-03-20T09:06:42.239Z,23.63
2023-03-20T09:09:08.902Z,24.00
2023-03-20T09:11:37.418Z,25.38
2023-03-20T09:14:04.054Z,23.75
2023-03-20T09:16:30.837Z,26.75
2023-03-20T09:18:57.542Z,26.20
2023-03-20T09:21:24.190Z,26.02
2023-03-20T09:23:50.929Z,30.23
2023-03-20T09:26:17.785Z,27.10
2023-03-20T09:28:44.396Z,26.38
2023-03-20T09:31:12.038Z,29.08
2023-03-20T09:33:38.731Z,30.50
2023-03-20T09:36:06.258Z,30.00
2023-03-20T09:38:32.972Z,30.38
2023-03-20T09:41:01.434Z,27.33
2023-03-20T09:43:47.029Z,24.98
2023-03-20T09:46:49.643Z,24.70
2023-03-20T09:49:16.443Z,20.70
2023-03-20T09:52:01.496Z,21.25
2023-03-20T09:54:29.416Z,17.27
2023-03-20T09:56:57.796Z,14.95
2023-03-20T09:59:27.073Z,14.95
2023-03-20T10:02:06.425Z,15.40
2023-03-20T10:04:34.795Z,10.57
2023-03-20T10:07:04.626Z,11.27
2023-03-20T10:09:32.312Z,10.38
2023-03-20T10:12:18.195Z,11.30
2023-03-20T10:15:00.001Z,11.35
2023-03-20T10:17:56.394Z,9.27
2023-03-20T10:20:37.911Z,10.65
2023-03-20T10:23:19.233Z,11.38
2023-03-20T10:25:53.792Z,13.00
2023-03-20T10:28:26.987Z,12.90
2023-03-20T10:31:24.385Z,12.60
2023-03-20T10:34:28.924Z,12.35
2023-03-20T10:37:14.826Z,14.07
2023-03-20T10:39:54.431Z,13.45
2023-03-20T10:42:27.662Z,12.48
2023-03-20T10:45:02.119Z,13.02
2023-03-20T10:47:33.513Z,13.80
2023-03-20T10:50:11.340Z,11.98
2023-03-20T10:52:41.436Z,13.10
2023-03-20T10:55:14.444Z,12.55
2023-03-20T10:57:48.292Z,12.50
2023-03-20T11:00:22.285Z,13.35
2023-03-20T11:02:49.333Z,13.98
2023-03-20T11:05:24.937Z,11.98
2023-03-20T11:08:01.898Z,13.05
2023-03-20T11:10:33.775Z,12.95
2023-03-20T11:13:22.853Z,13.13
2023-03-20T11:15:53.416Z,12.27
2023-03-20T11:18:20.665Z,11.80
2023-03-20T11:20:54.767Z,12.05
2023-03-20T11:23:31.344Z,14.15
2023-03-20T11:26:08.027Z,12.90
2023-03-20T11:28:37.290Z,12.60
2023-03-20T11:31:30.016Z,13.32
2023-03-20T11:34:14.884Z,12.15
2023-03-20T11:37:10.412Z,12.32
2023-03-20T11:39:39.866Z,12.10
2023-03-20T11:42:23.358Z,11.90
2023-03-20T11:44:58.349Z,12.57
2023-03-20T11:47:27.815Z,10.40
2023-03-20T11:49:57.749Z,11.35
2023-03-20T11:52:34.896Z,9.80
2023-03-20T11:55:04.964Z,11.15
2023-03-20T11:57:37.969Z,10.48
2023-03-20T12:00:20.747Z,9.70
2023-03-20T12:02:47.675Z,8.35
2023-03-20T12:05:36.324Z,7.45
2023-03-20T12:08:16.316Z,8.25
2023-03-20T12:10:46.945Z,7.20
2023-03-20T12:13:17.154Z,7.30
2023-03-20T12:15:55.638Z,6.13
2023-03-20T12:18:32.856Z,5.70
2023-03-20T12:21:21.435Z,4.70
2023-03-20T12:23:54.899Z,5.20
2023-03-20T12:26:28.124Z,4.63
2023-03-20T12:29:18.665Z,5.22
2023-03-20T12:32:03.230Z,5.00
2023-03-20T12:34:32.985Z,4.90
2023-03-20T12:37:00.263Z,5.00
2023-03-20T12:39:41.401Z,4.70
2023-03-20T12:42:27.674Z,5.43
2023-03-20T12:45:11.328Z,5.10
2023-03-20T12:47:43.981Z,4.88
2023-03-20T12:50:35.550Z,4.82
2023-03-20T12:53:35.137Z,5.13
2023-03-20T12:56:27.808Z,5.20
2023-03-20T12:59:26.404Z,5.18
2023-03-20T13:01:59.122Z,5.43
2023-03-20T13:04:56.537Z,5.72
2023-03-20T13:07:56.321Z,6.20
2023-03-20T13:10:28.783Z,5.57
2023-03-20T13:13:05.497Z,5.78
2023-03-20T13:16:04.746Z,5.15
2023-03-20T13:18:44.943Z,5.90
2023-03-20T13:21:24.402Z,6.03
2023-03-20T13:24:15.604Z,5.75
2023-03-20T13:26:56.109Z,5.40
2023-03-20T13:29:41.852Z,6.00
2023-03-20T13:32:17.493Z,5.93
2023-03-20T13:35:02.101Z,5.95
2023-03-20T13:37:35.722Z,6.63
2023-03-20T13:40:21.125Z,5.55
2023-03-20T13:43:04.248Z,5.20
2023-03-20T13:45:36.538Z,6.60
2023-03-20T13:48:07.940Z,6.72
2023-03-20T13:51:02.208Z,6.43
2023-03-20T13:53:33.308Z,6.68
2023-03-20T13:56:18.618Z,6.68
2023-03-20T13:59:11.172Z,5.88
2023-03-20T14:02:05.079Z,6.40
2023-03-20T14:04:32.508Z,6.03
2023-03-20T14:06:59.770Z,6.05
2023-03-20T14:09:28.065Z,7.53
2023-03-20T14:11:58.540Z,6.18
2023-03-20T14:14:29.578Z,6.30
2023-03-20T14:17:06.508Z,6.00
2023-03-20T14:19:36.491Z,6.60
2023-03-20T14:22:03.584Z,6.55
2023-03-20T14:24:33.944Z,6.50
2023-03-20T14:27:01.460Z,6.13
2023-03-20T14:29:37.535Z,6.70
2023-03-20T14:32:13.423Z,6.57
2023-03-20T14:34:59.734Z,6.97
2023-03-20T14:37:38.393Z,6.20
2023-03-20T14:40:17.234Z,6.85
2023-03-20T14:43:00.418Z,6.80
2023-03-20T14:45:44.773Z,6.53
2023-03-20T14:48:37.757Z,5.75
2023-03-20T14:51:24.293Z,6.18
2023-03-20T14:54:18.228Z,5.60
2023-03-20T14:56:44.974Z,5.78
2023-03-20T14:59:12.544Z,6.35
2023-03-20T15:01:39.201Z,5.43
2023-03-20T15:04:07.765Z,6.18
2023-03-20T15:06:42.333Z,5.93
2023-03-20T15:09:11.139Z,5.75
2023-03-20T15:11:38.535Z,5.90
2023-03-20T15:14:07.753Z,5.40
2023-03-20T15:16:37.554Z,5.28
2023-03-20T15:19:19.780Z,5.38
2023-03-20T15:21:48.074Z,5.75
2023-03-20T15:24:26.096Z,5.70
2023-03-20T15:27:01.195Z,6.20
2023-03-20T15:29:29.654Z,5.45
2023-03-20T15:32:15.474Z,6.65
2023-03-20T15:34:44.033Z,5.50
2023-03-20T15:37:20.777Z,5.97
2023-03-20T15:39:51.620Z,5.85
2023-03-20T15:42:21.941Z,5.80
2023-03-20T15:44:52.155Z,5.18
2023-03-20T15:47:21.980Z,5.78
2023-03-20T15:49:55.322Z,6.20
2023-03-20T15:52:42.864Z,5.90
2023-03-20T15:55:17.690Z,5.80
2023-03-20T15:57:47.163Z,5.40
2023-03-20T16:00:32.572Z,6.32
2023-03-20T16:03:01.636Z,5.72
2023-03-20T16:05:30.046Z,5.82
2023-03-20T16:07:56.723Z,7.55
2023-03-20T16:10:36.062Z,5.93
2023-03-20T16:13:04.350Z,5.72
2023-03-20T16:15:32.803Z,5.80
2023-03-20T16:18:02.351Z,5.65
2023-03-20T16:20:37.612Z,5.60
2023-03-20T16:23:07.088Z,5.78
2023-03-20T16:25:35.961Z,5.70
2023-03-20T16:28:07.054Z,5.47
2023-03-20T16:30:35.166Z,5.95
2023-03-20T16:33:07.329Z,5.55
2023-03-20T16:35:44.961Z,5.70
2023-03-20T16:38:25.292Z,5.35
2023-03-20T16:41:15.980Z,5.70
2023-03-20T16:43:48.799Z,5.70
2023-03-20T16:46:26.390Z,6.50
2023-03-20T16:49:29.519Z,5.32
2023-03-20T16:52:01.960Z,5.68
2023-03-20T16:54:36.048Z,5.45
2023-03-20T16:57:05.947Z,5.60
2023-03-20T16:59:32.586Z,5.70
2023-03-20T17:01:59.982Z,5.95
2023-03-20T17:04:41.349Z,5.57
2023-03-20T17:07:15.332Z,5.50
2023-03-20T17:10:16.803Z,5.90
2023-03-20T17:12:46.625Z,5.32
2023-03-20T17:15:18.921Z,5.50
2023-03-20T17:17:45.672Z,5.35
2023-03-20T17:20:24.795Z,5.40
2023-03-20T17:22:52.161Z,6.25
2023-03-20T17:25:20.042Z,5.70
2023-03-20T17:27:47.035Z,5.60
2023-03-20T17:30:20.293Z,5.40
2023-03-20T17:32:47.176Z,5.70
2023-03-20T17:35:14.005Z,5.70
2023-03-20T17:37:41.204Z,5.88
2023-03-20T17:40:12.970Z,5.53
2023-03-20T17:42:39.694Z,5.88
2023-03-20T17:45:06.867Z,6.40
2023-03-20T17:47:33.576Z,6.38
2023-03-20T17:50:00.273Z,6.07
2023-03-20T17:52:28.413Z,6.00
2023-03-20T17:54:55.118Z,6.00
2023-03-20T17:57:32.708Z,6.00
2023-03-20T18:00:00.724Z,5.80
2023-03-20T18:02:27.653Z,6.28
2023-03-20T18:04:54.433Z,5.90
2023-03-20T18:07:21.265Z,6.10
2023-03-20T18:09:49.252Z,6.18
2023-03-20T18:12:18.331Z,6.18
2023-03-20T18:14:46.115Z,6.40
2023-03-20T18:17:14.336Z,6.40
2023-03-20T18:19:42.281Z,6.40
2023-03-20T18:22:09.303Z,6.35
2023-03-20T18:24:36.568Z,7.25
2023-03-20T18:27:03.560Z,6.03
2023-03-20T18:29:30.232Z,5.95
2023-03-20T18:31:56.948Z,6.30
2023-03-20T18:34:23.616Z,6.10
2023-03-20T18:36:51.785Z,5.97
2023-03-20T18:39:24.203Z,6.30
2023-03-20T18:41:51.835Z,6.10
2023-03-20T18:44:19.120Z,6.43
2023-03-20T18:46:45.964Z,6.13
2023-03-20T18:49:17.489Z,6.00
2023-03-20T18:51:45.133Z,6.95
2023-03-20T18:54:11.948Z,6.20
2023-03-20T18:56:38.809Z,5.57
2023-03-20T18:59:07.804Z,6.72
2023-03-20T19:01:35.806Z,6.95
2023-03-20T19:04:02.645Z,6.47
2023-03-20T19:06:32.544Z,6.38
2023-03-20T19:09:02.690Z,6.82
2023-03-20T19:11:29.341Z,6.20
2023-03-20T19:13:56.204Z,6.40
2023-03-20T19:16:27.322Z,6.55
2023-03-20T19:18:55.908Z,5.75
2023-03-20T19:21:26.156Z,6.32
2023-03-20T19:23:54.748Z,6.43
2023-03-20T19:26:22.332Z,6.78
2023-03-20T19:28:48.949Z,6.05
2023-03-20T19:31:16.216Z,6.07
2023-03-20T19:33:43.347Z,6.68
2023-03-20T19:36:37.183Z,6.25
2023-03-20T19:39:06.317Z,6.35
2023-03-20T19:41:33.035Z,6.10
2023-03-20T19:44:01.377Z,5.60
2023-03-20T19:46:39.680Z,6.90
2023-03-20T19:49:17.878Z,6.18
2023-03-20T19:51:45.085Z,6.05
2023-03-20T19:54:11.713Z,6.60
2023-03-20T19:56:38.396Z,6.30
2023-03-20T19:59:05.906Z,6.40
2023-03-20T20:01:32.638Z,6.35
2023-03-20T20:03:59.422Z,6.63
2023-03-20T20:06:31.350Z,6.45
2023-03-20T20:08:59.544Z,5.80
2023-03-20T20:11:26.245Z,6.05
2023-03-20T20:14:10.012Z,6.03
2023-03-20T20:16:39.933Z,5.93
2023-03-20T20:19:07.297Z,6.18
2023-03-20T20:24:21.249Z,6.65
2023-03-20T20:26:55.484Z,6.65
2023-03-20T20:29:29.936Z,7.63
2023-03-20T20:31:56.749Z,6.32
2023-03-20T20:39:58.766Z,7.40
2023-03-20T20:42:25.575Z,7.22
2023-03-20T20:44:52.394Z,7.60
2023-03-20T20:47:19.105Z,7.07
2023-03-20T20:49:47.495Z,7.32
2023-03-20T20:52:15.688Z,7.82
2023-03-20T20:54:42.588Z,6.70
2023-03-20T20:57:10.797Z,7.45
2023-03-20T20:59:38.126Z,7.18
2023-03-20T21:02:10.676Z,7.03
2023-03-20T21:04:42.089Z,6.65
2023-03-20T21:07:13.152Z,7.03
2023-03-20T21:09:40.373Z,6.75
2023-03-20T21:12:08.550Z,7.07
2023-03-20T21:14:35.691Z,6.72
2023-03-20T21:17:03.647Z,6.90
2023-03-20T21:19:34.635Z,6.45
2023-03-20T21:22:01.520Z,7.32
2023-03-20T21:24:33.181Z,6.80
2023-03-20T21:27:01.449Z,8.70
2023-03-20T21:29:28.069Z,8.80
2023-03-20T21:31:54.762Z,8.80
2023-03-20T21:34:21.861Z,6.80
2023-03-20T21:36:49.377Z,7.70
2023-03-20T21:39:17.545Z,6.63
2023-03-20T21:41:45.246Z,6.78
2023-03-20T21:44:17.670Z,6.75
2023-03-20T21:58:41.318Z,6.60
2023-03-20T22:04:10.534Z,7.05
2023-03-20T22:07:18.681Z,7.75
2023-03-20T22:21:03.832Z,6.97
2023-03-20T22:26:55.149Z,7.45
2023-03-20T22:35:04.313Z,9.00
2023-03-20T22:37:46.626Z,9.15
2023-03-20T22:40:59.378Z,9.80
2023-03-20T22:42:59.552Z,8.40
2023-03-20T22:45:37.846Z,7.88
2023-03-20T22:48:11.448Z,7.60
2023-03-20T22:50:39.445Z,9.02
2023-03-20T22:53:06.263Z,7.88
2023-03-20T22:55:33.392Z,8.15
2023-03-20T22:58:07.468Z,8.90
2023-03-20T23:00:36.271Z,7.82
2023-03-20T23:03:22.305Z,7.30
2023-03-20T23:05:51.570Z,6.60
2023-03-20T23:08:18.413Z,7.45
2023-03-20T23:10:47.835Z,7.13
2023-03-20T23:13:14.983Z,7.63
2023-03-20T23:15:41.707Z,7.20
2023-03-20T23:18:09.745Z,6.90
2023-03-20T23:20:36.743Z,7.70
2023-03-20T23:23:03.606Z,8.30
2023-03-20T23:25:38.884Z,7.80
2023-03-20T23:28:08.314Z,7.72
2023-03-20T23:30:44.215Z,8.00
2023-03-20T23:33:13.137Z,7.38
2023-03-20T23:35:39.837Z,7.80
2023-03-20T23:38:06.520Z,7.70
2023-03-20T23:40:33.249Z,7.63
2023-03-20T23:42:59.888Z,7.88
2023-03-20T23:45:26.631Z,7.57
2023-03-20T23:47:53.315Z,8.80
2023-03-20T23:50:28.886Z,7.50
2023-03-20T23:53:13.086Z,7.20
2023-03-20T23:55:45.967Z,7.60
2023-03-20T23:58:13.488Z,7.68
